createdAt,value
2024-01-20T00:00:26.832Z,8.27
2024-01-20T00:02:53.962Z,9.05
2024-01-20T00:05:21.490Z,8.10
2024-01-20T00:07:48.643Z,7.72
2024-01-20T00:10:15.810Z,7.78
2024-01-20T00:12:44.424Z,7.82
2024-01-20T00:15:12.928Z,8.43
2024-01-20T00:17:42.385Z,8.93
2024-01-20T00:20:10.958Z,7.50
2024-01-20T00:22:38.932Z,7.47
2024-01-20T00:25:07.001Z,8.90
2024-01-20T00:27:35.025Z,8.32
2024-01-20T00:30:03.267Z,8.32
2024-01-20T00:32:31.234Z,8.65
2024-01-20T00:35:06.326Z,8.98
2024-01-20T00:37:36.102Z,8.30
2024-01-20T00:40:05.772Z,8.80
2024-01-20T00:42:33.120Z,9.48
2024-01-20T00:45:00.463Z,8.43
2024-01-20T00:47:27.812Z,9.63
2024-01-20T00:49:55.286Z,9.68
2024-01-20T00:52:22.449Z,9.07
2024-01-20T00:54:49.831Z,9.15
2024-01-20T00:57:16.954Z,9.18
2024-01-20T00:59:46.370Z,8.18
2024-01-20T01:02:13.742Z,10.02
2024-01-20T01:04:41.154Z,10.18
2024-01-20T01:07:08.296Z,9.45
2024-01-20T01:09:35.470Z,10.15
2024-01-20T01:12:02.555Z,10.60
2024-01-20T01:14:29.787Z,9.43
2024-01-20T01:16:56.968Z,10.55
2024-01-20T01:19:24.337Z,11.07
2024-01-20T01:21:51.436Z,9.13
2024-01-20T01:24:18.654Z,10.00
2024-01-20T01:26:45.910Z,11.07
2024-01-20T01:29:13.140Z,9.52
2024-01-20T01:31:40.420Z,9.93
2024-01-20T01:34:07.700Z,10.00
2024-01-20T01:36:35.018Z,11.13
2024-01-20T01:39:02.177Z,10.00
2024-01-20T01:41:29.346Z,9.38
2024-01-20T01:43:56.551Z,10.02
2024-01-20T01:46:23.983Z,10.60
2024-01-20T01:48:51.375Z,10.52
2024-01-20T01:51:18.543Z,9.30
2024-01-20T01:53:45.919Z,10.57
2024-01-20T01:56:13.259Z,10.55
2024-01-20T01:58:40.685Z,9.65
2024-01-20T02:01:07.878Z,10.25
2024-01-20T02:03:35.317Z,11.13
2024-01-20T02:06:02.564Z,10.85
2024-01-20T02:08:29.917Z,10.95
2024-01-20T02:10:58.159Z,11.27
2024-01-20T02:13:25.447Z,10.75
2024-01-20T02:15:52.631Z,11.95
2024-01-20T02:18:22.916Z,12.93
2024-01-20T02:20:50.345Z,11.80
2024-01-20T02:23:17.628Z,11.68
2024-01-20T02:25:44.880Z,12.02
2024-01-20T02:28:12.021Z,10.88
2024-01-20T02:30:39.213Z,8.82
2024-01-20T02:33:06.524Z,9.40
2024-01-20T02:35:33.693Z,8.63
2024-01-20T02:38:02.478Z,9.98
2024-01-20T02:40:29.643Z,11.48
2024-01-20T02:42:56.792Z,11.32
2024-01-20T02:45:24.149Z,11.25
2024-01-20T02:47:52.672Z,11.63
2024-01-20T02:50:19.875Z,14.52
2024-01-20T02:52:47.061Z,10.93
2024-01-20T02:55:14.170Z,12.25
2024-01-20T02:57:41.239Z,9.88
2024-01-20T03:00:09.327Z,12.32
2024-01-20T03:02:36.722Z,10.63
2024-01-20T03:05:03.956Z,10.60
2024-01-20T03:07:31.226Z,12.65
2024-01-20T03:09:58.335Z,11.40
2024-01-20T03:12:25.515Z,12.23
2024-01-20T03:14:52.966Z,11.57
2024-01-20T03:17:20.100Z,10.93
2024-01-20T03:19:47.351Z,11.95
2024-01-20T03:22:14.592Z,11.75
2024-01-20T03:24:41.739Z,11.38
2024-01-20T03:27:10.483Z,10.88
2024-01-20T03:29:37.718Z,12.43
2024-01-20T03:32:04.907Z,11.68
2024-01-20T03:34:32.210Z,11.68
2024-01-20T03:36:59.448Z,12.20
2024-01-20T03:39:26.567Z,13.60
2024-01-20T03:41:53.742Z,12.85
2024-01-20T03:44:21.692Z,12.85
2024-01-20T03:46:48.796Z,13.40
2024-01-20T03:49:16.065Z,13.68
2024-01-20T03:51:43.540Z,13.43
2024-01-20T03:54:10.776Z,15.27
2024-01-20T03:56:47.218Z,14.70
2024-01-20T03:59:14.430Z,13.77
2024-01-20T04:01:41.612Z,14.88
2024-01-20T04:04:09.019Z,10.32
2024-01-20T04:06:36.435Z,13.27
2024-01-20T04:09:05.296Z,11.15
2024-01-20T04:11:32.565Z,13.57
2024-01-20T04:13:59.720Z,13.43
2024-01-20T04:16:26.882Z,13.88
2024-01-20T04:18:54.180Z,14.98
2024-01-20T04:21:21.466Z,14.85
2024-01-20T04:23:48.595Z,15.13
2024-01-20T04:26:15.810Z,15.20
2024-01-20T04:28:42.925Z,15.13
2024-01-20T04:31:10.311Z,16.30
2024-01-20T04:33:38.071Z,15.60
2024-01-20T04:36:05.498Z,14.73
2024-01-20T04:38:32.827Z,14.35
2024-01-20T04:41:00.191Z,13.90
2024-01-20T04:43:29.151Z,13.02
2024-01-20T04:45:56.246Z,12.48
2024-01-20T04:48:23.761Z,12.70
2024-01-20T04:50:50.941Z,12.88
2024-01-20T04:53:18.084Z,13.50
2024-01-20T04:55:45.260Z,13.27
2024-01-20T04:58:12.375Z,13.50
2024-01-20T05:00:39.538Z,12.57
2024-01-20T05:03:06.979Z,13.10
2024-01-20T05:05:34.157Z,12.38
2024-01-20T05:08:01.338Z,12.30
2024-01-20T05:10:28.530Z,14.32
2024-01-20T05:12:55.679Z,13.23
2024-01-20T05:15:22.842Z,14.63
2024-01-20T05:17:50.939Z,14.73
2024-01-20T05:20:18.107Z,13.35
2024-01-20T05:22:45.245Z,12.43
2024-01-20T05:25:12.404Z,12.57
2024-01-20T05:27:39.529Z,13.70
2024-01-20T05:30:07.130Z,12.55
2024-01-20T05:32:34.398Z,12.68
2024-01-20T05:35:01.643Z,11.95
2024-01-20T05:37:28.767Z,13.60
2024-01-20T05:39:55.926Z,9.70
2024-01-20T05:42:23.059Z,11.73
2024-01-20T05:44:50.254Z,10.15
2024-01-20T05:47:17.459Z,6.55
2024-01-20T05:49:44.639Z,10.73
2024-01-20T05:52:11.847Z,9.63
2024-01-20T05:54:39.116Z,12.15
2024-01-20T05:57:06.271Z,11.80
2024-01-20T05:59:33.383Z,11.00
2024-01-20T06:02:01.190Z,12.52
2024-01-20T06:04:28.515Z,11.20
2024-01-20T06:06:55.725Z,10.32
2024-01-20T06:09:23.033Z,10.88
2024-01-20T06:11:50.335Z,11.00
2024-01-20T06:14:17.797Z,11.45
2024-01-20T06:16:45.012Z,12.95
2024-01-20T06:19:12.217Z,12.65
2024-01-20T06:21:39.398Z,12.30
2024-01-20T06:24:06.922Z,13.15
2024-01-20T06:26:34.122Z,10.85
2024-01-20T06:29:01.658Z,9.00
2024-01-20T06:31:29.430Z,12.07
2024-01-20T06:33:56.893Z,9.60
2024-01-20T06:36:26.575Z,12.10
2024-01-20T06:38:54.181Z,13.48
2024-01-20T06:41:21.495Z,11.27
2024-01-20T06:43:48.716Z,12.07
2024-01-20T06:46:15.995Z,14.27
2024-01-20T06:48:43.279Z,11.10
2024-01-20T06:51:16.814Z,10.73
2024-01-20T06:53:44.866Z,11.57
2024-01-20T06:56:12.212Z,12.70
2024-01-20T06:58:40.184Z,11.13
2024-01-20T07:01:07.405Z,8.93
2024-01-20T07:03:34.698Z,9.15
2024-01-20T07:06:02.403Z,11.40
2024-01-20T07:08:29.840Z,12.93
2024-01-20T07:10:57.226Z,12.35
2024-01-20T07:13:24.338Z,13.85
2024-01-20T07:15:51.522Z,13.15
2024-01-20T07:18:18.809Z,12.27
2024-01-20T07:20:46.161Z,14.40
2024-01-20T07:23:13.431Z,12.85
2024-01-20T07:25:40.965Z,10.75
2024-01-20T07:28:08.197Z,12.48
2024-01-20T07:30:35.691Z,12.48
2024-01-20T07:33:03.215Z,11.60
2024-01-20T07:35:30.535Z,12.82
2024-01-20T07:37:57.718Z,12.20
2024-01-20T07:40:24.876Z,10.88
2024-01-20T07:42:52.013Z,10.40
2024-01-20T07:45:19.429Z,11.43
2024-01-20T07:47:47.686Z,12.20
2024-01-20T07:50:14.825Z,11.55
2024-01-20T07:52:41.985Z,11.35
2024-01-20T07:55:09.607Z,12.25
2024-01-20T07:57:36.764Z,11.30
2024-01-20T08:00:05.980Z,11.80
2024-01-20T08:02:33.166Z,12.05
2024-01-20T08:05:00.636Z,10.77
2024-01-20T08:07:27.883Z,11.27
2024-01-20T08:09:55.223Z,10.85
2024-01-20T08:12:22.360Z,10.10
2024-01-20T08:14:49.722Z,9.98
2024-01-20T08:17:16.840Z,9.90
2024-01-20T08:19:44.017Z,11.80
2024-01-20T08:22:11.916Z,11.00
2024-01-20T08:24:39.032Z,9.85
2024-01-20T08:27:06.274Z,10.00
2024-01-20T08:29:33.493Z,11.07
2024-01-20T08:32:00.569Z,9.60
2024-01-20T08:34:28.242Z,11.25
2024-01-20T08:36:55.525Z,10.65
2024-01-20T08:39:22.737Z,10.52
2024-01-20T08:41:50.123Z,10.82
2024-01-20T08:44:17.333Z,10.82
2024-01-20T08:46:46.501Z,10.48
2024-01-20T08:49:13.737Z,11.13
2024-01-20T08:51:40.945Z,10.05
2024-01-20T08:54:08.578Z,9.23
2024-01-20T08:56:35.739Z,9.52
2024-01-20T08:59:02.926Z,9.60
2024-01-20T09:01:30.114Z,9.45
2024-01-20T09:03:57.998Z,9.00
2024-01-20T09:06:25.323Z,8.80
2024-01-20T09:08:52.486Z,7.43
2024-01-20T09:11:19.592Z,8.43
2024-01-20T09:13:46.820Z,8.27
2024-01-20T09:16:14.244Z,8.55
2024-01-20T09:18:41.669Z,8.38
2024-01-20T09:21:15.517Z,7.93
2024-01-20T09:23:42.697Z,8.35
2024-01-20T09:26:09.913Z,7.45
2024-01-20T09:28:37.202Z,7.82
2024-01-20T09:31:04.741Z,6.50
2024-01-20T09:33:33.325Z,6.78
2024-01-20T09:36:00.725Z,4.28
2024-01-20T09:38:29.569Z,5.10
2024-01-20T09:40:59.748Z,6.05
2024-01-20T09:43:27.126Z,5.43
2024-01-20T09:45:54.626Z,6.05
2024-01-20T09:48:22.044Z,6.15
2024-01-20T09:50:50.295Z,6.53
2024-01-20T09:53:18.355Z,5.22
2024-01-20T09:55:46.451Z,5.75
2024-01-20T09:58:14.143Z,4.80
2024-01-20T10:00:44.871Z,3.90
2024-01-20T10:03:12.780Z,5.20
2024-01-20T10:05:40.407Z,5.22
2024-01-20T10:08:07.828Z,4.63
2024-01-20T10:10:35.245Z,5.25
2024-01-20T10:13:02.763Z,3.88
2024-01-20T10:15:34.091Z,5.05
2024-01-20T10:18:07.576Z,5.82
2024-01-20T10:20:35.224Z,5.93
2024-01-20T10:23:03.406Z,5.55
2024-01-20T10:25:30.702Z,5.03
2024-01-20T10:27:57.995Z,5.50
2024-01-20T10:30:26.255Z,6.57
2024-01-20T10:33:04.384Z,5.28
2024-01-20T10:35:36.847Z,5.90
2024-01-20T10:38:06.138Z,5.70
2024-01-20T10:40:34.017Z,4.47
2024-01-20T10:43:06.263Z,5.05
2024-01-20T10:45:35.277Z,5.50
2024-01-20T10:48:10.888Z,6.18
2024-01-20T10:50:43.104Z,5.35
2024-01-20T10:55:37.873Z,5.95
2024-01-20T10:58:08.943Z,5.70
2024-01-20T11:00:38.444Z,3.75
2024-01-20T11:03:06.856Z,3.13
2024-01-20T11:05:34.521Z,3.95
2024-01-20T11:08:06.165Z,4.28
2024-01-20T11:10:40.960Z,4.38
2024-01-20T11:13:08.573Z,5.18
2024-01-20T11:15:36.025Z,4.55
2024-01-20T11:18:04.217Z,6.35
2024-01-20T11:20:31.696Z,5.13
2024-01-20T11:22:58.791Z,5.65
2024-01-20T11:25:33.103Z,5.05
2024-01-20T11:28:00.260Z,5.13
2024-01-20T11:30:36.680Z,4.07
2024-01-20T11:33:04.459Z,4.97
2024-01-20T11:35:31.735Z,4.88
2024-01-20T11:37:59.117Z,4.80
2024-01-20T11:40:26.548Z,4.55
2024-01-20T11:42:53.720Z,6.15
2024-01-20T11:45:20.984Z,5.22
2024-01-20T11:47:48.210Z,5.45
2024-01-20T11:50:15.440Z,5.60
2024-01-20T11:52:42.629Z,4.75
2024-01-20T11:55:10.080Z,5.65
2024-01-20T11:57:37.329Z,5.05
2024-01-20T12:00:05.763Z,4.50
2024-01-20T12:02:32.946Z,5.28
2024-01-20T12:05:04.622Z,5.13
2024-01-20T12:07:35.955Z,5.15
2024-01-20T12:10:03.602Z,5.85
2024-01-20T12:12:30.801Z,5.40
2024-01-20T12:14:58.092Z,5.72
2024-01-20T12:17:26.327Z,4.68
2024-01-20T12:19:53.565Z,4.13
2024-01-20T12:22:20.830Z,4.25
2024-01-20T12:24:48.724Z,4.65
2024-01-20T12:27:16.516Z,4.90
2024-01-20T12:29:43.982Z,5.10
2024-01-20T12:32:11.508Z,4.85
2024-01-20T12:34:39.014Z,4.55
2024-01-20T12:37:08.779Z,4.97
2024-01-20T12:39:36.703Z,4.82
2024-01-20T12:42:04.306Z,4.68
2024-01-20T12:44:31.660Z,5.53
2024-01-20T12:46:58.840Z,4.22
2024-01-20T12:49:26.295Z,4.55
2024-01-20T12:51:53.761Z,4.95
2024-01-20T12:54:21.115Z,5.15
2024-01-20T12:56:48.544Z,4.68
2024-01-20T12:59:15.856Z,5.72
2024-01-20T13:01:43.231Z,5.80
2024-01-20T13:04:10.752Z,5.63
2024-01-20T13:06:38.133Z,5.18
2024-01-20T13:09:05.500Z,5.18
2024-01-20T13:11:32.715Z,4.57
2024-01-20T13:14:01.604Z,5.75
2024-01-20T13:16:28.868Z,5.22
2024-01-20T13:18:56.945Z,5.85
2024-01-20T13:21:24.492Z,6.43
2024-01-20T13:23:51.833Z,5.72
2024-01-20T13:26:19.071Z,5.07
2024-01-20T13:28:49.559Z,5.35
2024-01-20T13:31:18.340Z,5.03
2024-01-20T13:33:45.981Z,5.28
2024-01-20T13:36:13.604Z,6.22
2024-01-20T13:38:40.870Z,5.65
2024-01-20T13:41:08.149Z,6.15
2024-01-20T13:43:35.501Z,5.60
2024-01-20T13:46:03.768Z,5.10
2024-01-20T13:48:31.128Z,5.43
2024-01-20T13:50:59.127Z,5.97
2024-01-20T13:53:26.416Z,6.05
2024-01-20T13:55:53.676Z,5.50
2024-01-20T13:58:20.921Z,5.60
2024-01-20T14:00:49.644Z,5.13
2024-01-20T14:03:17.210Z,6.13
2024-01-20T14:05:48.117Z,6.15
2024-01-20T14:08:15.440Z,5.68
2024-01-20T14:10:42.672Z,6.68
2024-01-20T14:13:10.026Z,12.35
2024-01-20T14:15:40.122Z,11.68
2024-01-20T14:18:11.131Z,9.05
2024-01-20T14:20:38.399Z,7.28
2024-01-20T14:23:05.622Z,6.82
2024-01-20T14:25:32.855Z,5.80
2024-01-20T14:28:02.054Z,7.47
2024-01-20T14:30:29.254Z,6.95
2024-01-20T14:32:56.612Z,11.48
2024-01-20T14:35:23.871Z,11.75
2024-01-20T14:37:51.284Z,11.07
2024-01-20T14:40:18.538Z,10.98
2024-01-20T14:42:45.875Z,12.82
2024-01-20T14:45:13.150Z,9.85
2024-01-20T14:47:40.439Z,8.77
2024-01-20T14:50:08.563Z,9.95
2024-01-20T14:52:35.900Z,16.08
2024-01-20T14:55:03.659Z,19.05
2024-01-20T14:57:31.004Z,14.48
2024-01-20T14:59:58.234Z,14.43
2024-01-20T15:02:25.497Z,15.63
2024-01-20T15:04:52.706Z,12.55
2024-01-20T15:07:21.116Z,11.25
2024-01-20T15:09:48.405Z,11.25
2024-01-20T15:12:15.614Z,8.15
2024-01-20T15:14:45.091Z,8.18
2024-01-20T15:17:13.670Z,8.50
2024-01-20T15:19:42.293Z,7.97
2024-01-20T15:22:10.201Z,9.05
2024-01-20T15:24:37.534Z,8.45
2024-01-20T15:27:04.864Z,10.25
2024-01-20T15:29:33.299Z,11.65
2024-01-20T15:32:01.518Z,12.25
2024-01-20T15:34:28.921Z,10.38
2024-01-20T15:36:56.127Z,10.32
2024-01-20T15:39:23.577Z,10.65
2024-01-20T15:41:51.344Z,8.38
2024-01-20T15:44:18.575Z,9.18
2024-01-20T15:46:45.830Z,7.88
2024-01-20T15:49:13.277Z,9.35
2024-01-20T15:51:42.244Z,10.85
2024-01-20T15:54:10.326Z,9.30
2024-01-20T15:56:43.756Z,9.35
2024-01-20T15:59:11.622Z,9.05
2024-01-20T16:01:38.964Z,8.90
2024-01-20T16:04:06.458Z,11.02
2024-01-20T16:06:34.180Z,10.27
2024-01-20T16:09:01.654Z,10.00
2024-01-20T16:11:29.121Z,10.45
2024-01-20T16:13:56.443Z,11.25
2024-01-20T16:16:23.658Z,10.85
2024-01-20T16:18:51.141Z,12.43
2024-01-20T16:21:25.391Z,13.90
2024-01-20T16:23:53.341Z,13.30
2024-01-20T16:26:22.158Z,13.85
2024-01-20T16:28:50.290Z,13.55
2024-01-20T16:31:18.173Z,12.73
2024-01-20T16:33:46.652Z,14.25
2024-01-20T16:36:17.287Z,17.42
2024-01-20T16:38:44.758Z,17.23
2024-01-20T16:41:12.333Z,17.95
2024-01-20T16:43:40.171Z,17.90
2024-01-20T16:46:07.518Z,18.98
2024-01-20T16:48:35.023Z,19.40
2024-01-20T16:51:12.363Z,15.68
2024-01-20T16:53:42.583Z,15.27
2024-01-20T16:56:09.852Z,16.42
2024-01-20T16:58:39.903Z,13.45
2024-01-20T17:01:07.258Z,12.95
2024-01-20T17:03:34.700Z,14.20
2024-01-20T17:06:02.042Z,16.55
2024-01-20T17:08:29.288Z,17.48
2024-01-20T17:10:56.621Z,17.58
2024-01-20T17:13:23.836Z,15.10
2024-01-20T17:15:51.042Z,15.63
2024-01-20T17:18:18.461Z,13.32
2024-01-20T17:20:45.744Z,11.57
2024-01-20T17:23:13.235Z,11.63
2024-01-20T17:25:40.601Z,10.80
2024-01-20T17:28:07.810Z,11.70
2024-01-20T17:30:35.133Z,11.82
2024-01-20T17:33:02.565Z,11.93
2024-01-20T17:35:29.880Z,10.55
2024-01-20T17:37:57.353Z,11.25
2024-01-20T17:40:24.684Z,11.88
2024-01-20T17:42:52.020Z,11.07
2024-01-20T17:45:19.346Z,11.77
2024-01-20T17:47:47.441Z,11.77
2024-01-20T17:50:15.858Z,12.18
2024-01-20T17:52:43.403Z,11.63
2024-01-20T17:55:10.691Z,12.13
2024-01-20T17:57:38.003Z,11.70
2024-01-20T18:00:07.237Z,12.10
2024-01-20T18:02:35.154Z,10.73
2024-01-20T18:05:04.217Z,11.50
2024-01-20T18:07:31.631Z,11.20
2024-01-20T18:09:59.159Z,11.45
2024-01-20T18:12:26.643Z,11.45
2024-01-20T18:14:53.979Z,11.05
2024-01-20T18:17:21.250Z,12.02
2024-01-20T18:19:48.468Z,12.02
2024-01-20T18:22:15.817Z,12.32
2024-01-20T18:24:43.153Z,12.75
2024-01-20T18:27:11.013Z,12.65
2024-01-20T18:29:39.000Z,12.23
2024-01-20T18:32:06.362Z,11.95
2024-01-20T18:34:33.676Z,11.43
2024-01-20T18:37:00.953Z,12.23
2024-01-20T18:39:28.235Z,13.13
2024-01-20T18:41:55.534Z,11.45
2024-01-20T18:44:22.712Z,14.10
2024-01-20T18:46:51.803Z,15.27
2024-01-20T18:49:19.364Z,14.60
2024-01-20T18:51:46.753Z,13.68
2024-01-20T18:54:14.132Z,12.63
2024-01-20T18:56:41.347Z,13.25
2024-01-20T18:59:09.718Z,13.25
2024-01-20T19:01:40.522Z,13.45
2024-01-20T19:04:07.855Z,12.15
2024-01-20T19:06:35.137Z,12.90
2024-01-20T19:09:02.355Z,12.38
2024-01-20T19:11:29.526Z,11.30
2024-01-20T19:13:57.574Z,11.75
2024-01-20T19:16:25.809Z,12.05
2024-01-20T19:18:53.288Z,11.32
2024-01-20T19:21:20.652Z,11.55
2024-01-20T19:23:47.992Z,11.98
2024-01-20T19:26:15.186Z,12.40
2024-01-20T19:28:42.676Z,11.57
2024-01-20T19:31:10.219Z,11.85
2024-01-20T19:33:38.180Z,12.40
2024-01-20T19:36:05.586Z,11.13
2024-01-20T19:38:32.942Z,11.80
2024-01-20T19:41:00.224Z,10.85
2024-01-20T19:43:27.495Z,11.27
2024-01-20T19:45:54.816Z,10.93
2024-01-20T19:48:22.130Z,11.13
2024-01-20T19:50:49.434Z,9.73
2024-01-20T19:53:16.668Z,9.98
2024-01-20T19:55:43.832Z,11.52
2024-01-20T19:58:11.056Z,11.20
2024-01-20T20:00:38.343Z,10.50
2024-01-20T20:03:05.690Z,11.13
2024-01-20T20:05:33.482Z,10.25
2024-01-20T20:08:02.400Z,10.68
2024-01-20T20:10:30.511Z,10.18
2024-01-20T20:12:57.905Z,10.65
2024-01-20T20:15:25.899Z,10.85
2024-01-20T20:17:53.207Z,10.23
2024-01-20T20:20:23.871Z,10.05
2024-01-20T20:22:51.339Z,9.82
2024-01-20T20:25:18.581Z,10.43
2024-01-20T20:27:45.757Z,10.55
2024-01-20T20:30:13.317Z,9.80
2024-01-20T20:32:40.855Z,9.82
2024-01-20T20:35:08.480Z,10.70
2024-01-20T20:37:35.776Z,9.40
2024-01-20T20:40:04.270Z,9.48
2024-01-20T20:42:31.541Z,9.63
2024-01-20T20:44:58.825Z,9.48
2024-01-20T20:47:26.140Z,9.60
2024-01-20T20:49:55.245Z,9.48
2024-01-20T20:52:22.660Z,10.32
2024-01-20T20:54:50.035Z,10.30
2024-01-20T20:57:17.400Z,9.48
2024-01-20T20:59:45.906Z,10.50
2024-01-20T21:02:13.605Z,12.30
2024-01-20T21:04:40.839Z,11.40
2024-01-20T21:07:08.670Z,11.20
2024-01-20T21:09:35.992Z,11.38
2024-01-20T21:12:03.397Z,11.80
2024-01-20T21:14:30.754Z,10.10
2024-01-20T21:16:57.995Z,11.07
2024-01-20T21:19:25.321Z,10.27
2024-01-20T21:21:52.760Z,9.48
2024-01-20T21:24:22.219Z,10.15
2024-01-20T21:26:49.553Z,9.98
2024-01-20T21:29:17.003Z,9.00
2024-01-20T21:31:44.445Z,9.77
2024-01-20T21:34:11.836Z,9.43
2024-01-20T21:36:40.049Z,9.45
2024-01-20T21:39:10.851Z,8.77
2024-01-20T21:41:38.394Z,10.48
2024-01-20T21:44:07.829Z,9.63
2024-01-20T21:46:36.837Z,9.23
2024-01-20T21:49:05.271Z,10.13
2024-01-20T21:51:32.815Z,11.00
2024-01-20T21:54:00.061Z,9.60
2024-01-20T21:56:27.322Z,9.63
2024-01-20T21:58:54.707Z,9.10
2024-01-20T22:01:21.954Z,9.80
2024-01-20T22:03:49.349Z,10.32
2024-01-20T22:06:16.701Z,9.55
2024-01-20T22:08:43.927Z,11.40
2024-01-20T22:11:11.175Z,10.50
2024-01-20T22:13:38.488Z,10.45
2024-01-20T22:16:05.856Z,10.48
2024-01-20T22:18:33.399Z,11.18
2024-01-20T22:21:01.706Z,10.40
2024-01-20T22:23:28.991Z,10.90
2024-01-20T22:25:56.264Z,10.57
2024-01-20T22:28:23.535Z,11.05
2024-01-20T22:30:51.152Z,10.88
2024-01-20T22:33:18.535Z,10.07
2024-01-20T22:35:45.927Z,11.93
2024-01-20T22:38:13.192Z,11.00
2024-01-20T22:40:40.385Z,10.27
2024-01-20T22:43:07.704Z,11.63
2024-01-20T22:45:34.940Z,11.65
2024-01-20T22:48:02.328Z,11.32
2024-01-20T22:50:29.673Z,13.45
2024-01-20T22:52:56.957Z,12.13
2024-01-20T22:55:24.570Z,11.30
2024-01-20T22:57:52.480Z,11.65
2024-01-20T23:00:27.075Z,10.70
2024-01-20T23:02:56.088Z,10.75
2024-01-20T23:05:23.658Z,10.45
2024-01-20T23:07:51.569Z,11.93
2024-01-20T23:10:19.792Z,11.55
2024-01-20T23:12:47.618Z,11.45
2024-01-20T23:15:15.026Z,11.68
2024-01-20T23:17:42.682Z,12.60
2024-01-20T23:20:11.446Z,12.13
2024-01-20T23:22:38.792Z,11.55
2024-01-20T23:25:06.365Z,11.60
2024-01-20T23:27:36.143Z,10.52
2024-01-20T23:30:03.860Z,11.00
2024-01-20T23:32:31.232Z,10.73
2024-01-20T23:34:58.620Z,10.77
2024-01-20T23:37:25.855Z,10.85
2024-01-20T23:39:53.215Z,10.38
2024-01-20T23:42:20.563Z,9.57
2024-01-20T23:44:47.814Z,9.57
2024-01-20T23:47:15.190Z,10.40
2024-01-20T23:49:42.396Z,10.27
2024-01-20T23:52:10.821Z,9.65
2024-01-20T23:54:39.006Z,9.23
2024-01-20T23:57:06.387Z,9.40
2024-01-20T23:59:33.590Z,10.02
